Terminal Aerodrome Forecast
Issued by NWS Louisville, KY

Home | Current Version | Previous Version | Text Only | Print | Product List | Glossary On
Versions: 1 2 3 4 5 6 7 8 9 10 11 12 13 14
531
FTUS43 KLMK 251120
TAFSDF
TAF
KSDF 251120Z 2512/2618 22004KT P6SM BKN040 OVC250
     FM251800 24007KT P6SM VCTS BKN035CB
     FM260200 VRB04KT P6SM SCT050 BKN250=

USA.gov is the U.S. government's official web portal to all federal, state and local government web resources and services.